Aeroporto :
LOGIN :

Iscrizione | Disclaimer

   EN    FR    IT 

 










Sommario :    VFR   VFR Marginale   IFR   IFR Intensivo   IFR Molto Intensivo
Visibilità : 
Base nubi : 
>= 8 km
>= 3000ft
5 / 8 km
1000 / 3000 ft
1500m / 5 km
500 / 1000 ft
800 / 1500m
200 / 500 ft
< 800m
< 200 ft
Simboli :   Temporali  Nebbia  Neve Forte  Precipitazioni Forti  Vento > 20 kt
SIGMETs :   Varie  Temporali  Ghiacco  Turbolenza  Onda orograficha  Ceneri Vulcaniche







- Altitudine del aeroporto : 179 ft


LIPI - Rivolto AFB Udine

ULTIMO METAR :
  • 190755Z /////KT 0400 FG SCT001 BKN020 01/M02 Q1022 RMK OVC VIS MIN 0400 WIND THR06 VRB02KT WIND THR24 13003KT RED

METARs OBSOLETI :
  • 190655Z /////KT 2000 BR FEW005 SCT020 M01/M04 Q1022 RMK BKN VIS MIN 2000 WIND THR06 14002KT WIND THR24 13002KT YLO
  • 190555Z /////KT 3000 BR FEW005 SCT016 M02/M04 Q1021 RMK BKN VIS MIN 3000 WIND THR06 09002KT WIND THR24 02004KT YLO

TAF TAF LIPI
Valido dal 19 a 06 ore il 19 a 15 ore UTC


190500Z 1906/1915 VRB03KT 7000 SCT015 BKN050
Nessun NOTAM noto per questo aeroporto.



MetMap, La meteo Aeronautica in un colpo d'occhio ! - Copyright ORBIFLY Dicembre 2007 - Disclaimer

ORBIFLY MET'MAP TEAM :

Programmazione e sviluppo : Alexandra Zaïnal
Concezione e sviluppo : Baudouin d'Aumeries
Co-Programmazione e sviluppo : Marc-Olivier Méhu
Supporto tecnico e logistico : Manuel Goepfert
Aiuto per la traduzione : Arnaldo La Scala

Contatto : metmap@orbifly.com




FONTI E CREDITI :

   NOAA